createdAt,value
2018-11-28T00:00:19.491Z,-0.60
2018-11-28T00:01:25.045Z,-0.60
2018-11-28T00:02:30.690Z,-0.60
2018-11-28T00:03:36.149Z,-0.60
2018-11-28T00:04:41.633Z,-0.60
2018-11-28T00:05:47.296Z,-0.70
2018-11-28T00:06:52.762Z,-0.60
2018-11-28T00:07:58.237Z,-0.60
2018-11-28T00:09:03.848Z,-0.60
2018-11-28T00:10:13.904Z,-0.60
2018-11-28T00:11:19.391Z,-0.60
2018-11-28T00:12:24.940Z,-0.60
2018-11-28T00:13:30.376Z,-0.50
2018-11-28T00:14:35.852Z,-0.60
2018-11-28T00:15:41.308Z,-0.60
2018-11-28T00:16:46.760Z,-0.60
2018-11-28T00:17:52.304Z,-0.70
2018-11-28T00:18:57.836Z,-0.70
2018-11-28T00:20:03.406Z,-0.70
2018-11-28T00:21:08.839Z,-0.70
2018-11-28T00:22:14.296Z,-0.70
2018-11-28T00:23:19.734Z,-0.60
2018-11-28T00:24:25.260Z,-0.60
2018-11-28T00:25:30.767Z,-0.60
2018-11-28T00:26:36.221Z,-0.60
2018-11-28T00:27:41.784Z,-0.60
2018-11-28T00:28:47.207Z,-0.50
2018-11-28T00:29:52.680Z,-0.60
2018-11-28T00:30:58.147Z,-0.60
2018-11-28T00:32:03.739Z,-0.50
2018-11-28T00:33:09.249Z,-0.50
2018-11-28T00:34:14.691Z,-0.60
2018-11-28T00:35:22.016Z,-0.50
2018-11-28T00:36:27.697Z,-0.60
2018-11-28T00:37:33.243Z,-0.60
2018-11-28T00:38:38.691Z,-0.60
2018-11-28T00:39:44.424Z,-0.60
2018-11-28T00:40:50.037Z,-0.60
2018-11-28T00:41:55.457Z,-0.60
2018-11-28T00:43:00.919Z,-0.60
2018-11-28T00:44:06.463Z,-0.60
2018-11-28T00:45:14.801Z,-0.60
2018-11-28T00:46:20.348Z,-0.60
2018-11-28T00:47:25.865Z,-0.60
2018-11-28T00:48:31.296Z,-0.60
2018-11-28T00:49:36.748Z,-0.50
2018-11-28T00:50:42.227Z,-0.50
2018-11-28T00:51:47.671Z,-0.60
2018-11-28T00:52:53.153Z,-0.50
2018-11-28T00:53:58.678Z,-0.50
2018-11-28T00:55:04.220Z,-0.50
2018-11-28T00:56:09.702Z,-0.50
2018-11-28T00:57:15.231Z,-0.60
2018-11-28T00:58:20.729Z,-0.50
2018-11-28T00:59:26.159Z,-0.60
2018-11-28T01:00:31.728Z,-0.60
2018-11-28T01:01:37.229Z,-0.60
2018-11-28T01:02:42.741Z,-0.60
2018-11-28T01:03:48.223Z,-0.60
2018-11-28T01:04:53.691Z,-0.60
2018-11-28T01:05:59.190Z,-0.60
2018-11-28T01:07:04.688Z,-0.60
2018-11-28T01:08:10.195Z,-0.60
2018-11-28T01:09:15.631Z,-0.60
2018-11-28T01:10:22.470Z,-0.60
2018-11-28T01:11:27.927Z,-0.60
2018-11-28T01:12:33.409Z,-0.60
2018-11-28T01:13:38.956Z,-0.70
2018-11-28T01:14:44.456Z,-0.60
2018-11-28T01:15:49.994Z,-0.60
2018-11-28T01:16:55.439Z,-0.60
2018-11-28T01:18:00.896Z,-0.60
2018-11-28T01:19:06.997Z,-0.60
2018-11-28T01:20:15.883Z,-0.70
2018-11-28T01:21:21.396Z,-0.70
2018-11-28T01:22:26.867Z,-0.70
2018-11-28T01:23:32.351Z,-0.60
2018-11-28T01:24:37.834Z,-0.70
2018-11-28T01:25:43.266Z,-0.60
2018-11-28T01:26:48.759Z,-0.70
2018-11-28T01:27:54.274Z,-0.70
2018-11-28T01:28:59.765Z,-0.70
2018-11-28T01:30:15.910Z,-0.70
2018-11-28T01:31:21.412Z,-0.70
2018-11-28T01:32:26.888Z,-0.70
2018-11-28T01:33:32.322Z,-0.70
2018-11-28T01:34:37.751Z,-0.70
2018-11-28T01:35:43.165Z,-0.70
2018-11-28T01:36:48.652Z,-0.70
2018-11-28T01:37:54.235Z,-0.70
2018-11-28T01:38:59.735Z,-0.70
2018-11-28T01:40:06.176Z,-0.70
2018-11-28T01:41:11.702Z,-0.70
2018-11-28T01:42:17.291Z,-0.70
2018-11-28T01:43:22.797Z,-0.70
2018-11-28T01:44:28.247Z,-0.70
2018-11-28T01:45:33.820Z,-0.70
2018-11-28T01:46:39.323Z,-0.80
2018-11-28T01:47:45.178Z,-0.80
2018-11-28T01:48:50.594Z,-0.80
2018-11-28T01:49:56.045Z,-0.70
2018-11-28T01:51:01.622Z,-0.70
2018-11-28T01:52:07.432Z,-0.70
2018-11-28T01:53:12.922Z,-0.70
2018-11-28T01:54:18.421Z,-0.70
2018-11-28T01:55:23.860Z,-0.70
2018-11-28T01:56:29.339Z,-0.70
2018-11-28T01:57:34.927Z,-0.70
2018-11-28T01:58:40.396Z,-0.70
2018-11-28T01:59:45.875Z,-0.70
2018-11-28T02:00:51.418Z,-0.70
2018-11-28T02:01:56.891Z,-0.70
2018-11-28T02:03:03.492Z,-0.70
2018-11-28T02:04:08.935Z,-0.70
2018-11-28T02:05:14.507Z,-0.70
2018-11-28T02:06:19.985Z,-0.70
2018-11-28T02:07:25.461Z,-0.70
2018-11-28T02:08:30.958Z,-0.70
2018-11-28T02:09:36.411Z,-0.70
2018-11-28T02:10:41.941Z,-0.80
2018-11-28T02:11:47.364Z,-0.80
2018-11-28T02:12:52.120Z,-0.80
2018-11-28T02:13:57.605Z,-0.80
2018-11-28T02:15:03.187Z,-0.80
2018-11-28T02:16:08.756Z,-0.80
2018-11-28T02:17:14.197Z,-0.80
2018-11-28T02:18:19.721Z,-0.80
2018-11-28T02:19:25.186Z,-0.80
2018-11-28T02:20:30.626Z,-0.80
2018-11-28T02:21:36.184Z,-0.80
2018-11-28T02:22:41.709Z,-0.80
2018-11-28T02:23:47.152Z,-0.70
2018-11-28T02:24:52.637Z,-0.80
2018-11-28T02:25:58.142Z,-0.80
2018-11-28T02:27:03.614Z,-0.80
2018-11-28T02:28:09.089Z,-0.80
2018-11-28T02:29:14.623Z,-0.80
2018-11-28T02:30:21.082Z,-0.80
2018-11-28T02:31:26.677Z,-0.80
2018-11-28T02:32:32.150Z,-0.80
2018-11-28T02:33:37.607Z,-0.80
2018-11-28T02:34:43.052Z,-0.80
2018-11-28T02:35:48.467Z,-0.80
2018-11-28T02:36:53.919Z,-0.80
2018-11-28T02:37:59.523Z,-0.80
2018-11-28T02:39:08.544Z,-0.90
2018-11-28T02:40:17.436Z,-0.80
2018-11-28T02:41:22.947Z,-0.80
2018-11-28T02:42:28.444Z,-0.80
2018-11-28T02:43:33.939Z,-0.80
2018-11-28T02:44:39.455Z,-0.80
2018-11-28T02:45:54.937Z,-0.80
2018-11-28T02:47:00.402Z,-0.80
2018-11-28T02:48:06.141Z,-0.80
2018-11-28T02:49:11.669Z,-0.80
2018-11-28T02:50:17.145Z,-0.80
2018-11-28T02:51:22.582Z,-0.80
2018-11-28T02:52:28.024Z,-0.80
2018-11-28T02:53:33.508Z,-0.80
2018-11-28T02:54:38.968Z,-0.80
2018-11-28T02:55:44.392Z,-0.80
2018-11-28T02:56:49.870Z,-0.80
2018-11-28T02:57:55.369Z,-0.80
2018-11-28T02:59:00.915Z,-0.80
2018-11-28T03:00:15.377Z,-0.80
2018-11-28T03:01:20.893Z,-0.80
2018-11-28T03:02:26.343Z,-0.80
2018-11-28T03:03:31.793Z,-0.90
2018-11-28T03:04:37.260Z,-0.80
2018-11-28T03:05:42.963Z,-0.80
2018-11-28T03:06:48.418Z,-0.80
2018-11-28T03:07:53.868Z,-0.80
2018-11-28T03:08:59.343Z,-0.80
2018-11-28T03:10:06.212Z,-0.80
2018-11-28T03:11:11.764Z,-0.80
2018-11-28T03:12:17.317Z,-0.90
2018-11-28T03:13:22.831Z,-0.90
2018-11-28T03:14:28.355Z,-0.80
2018-11-28T03:15:33.926Z,-0.80
2018-11-28T03:16:39.484Z,-0.80
2018-11-28T03:17:45.009Z,-0.80
2018-11-28T03:18:50.440Z,-0.80
2018-11-28T03:19:55.883Z,-0.80
2018-11-28T03:21:01.409Z,-0.80
2018-11-28T03:22:06.927Z,-0.80
2018-11-28T03:23:12.402Z,-0.80
2018-11-28T03:24:17.914Z,-0.80
2018-11-28T03:25:23.487Z,-0.80
2018-11-28T03:26:28.968Z,-0.70
2018-11-28T03:27:34.452Z,-0.80
2018-11-28T03:28:40.180Z,-0.80
2018-11-28T03:29:45.719Z,-0.70
2018-11-28T03:30:51.210Z,-0.70
2018-11-28T03:31:56.736Z,-0.70
2018-11-28T03:33:02.264Z,-0.70
2018-11-28T03:34:07.985Z,-0.70
2018-11-28T03:35:15.234Z,-0.80
2018-11-28T03:36:20.908Z,-0.70
2018-11-28T03:37:26.357Z,-0.80
2018-11-28T03:38:31.822Z,-0.70
2018-11-28T03:39:37.308Z,-0.70
2018-11-28T03:40:42.779Z,-0.70
2018-11-28T03:41:48.338Z,-0.70
2018-11-28T03:42:53.803Z,-0.70
2018-11-28T03:43:59.269Z,-0.70
2018-11-28T03:45:06.369Z,-0.70
2018-11-28T03:46:11.902Z,-0.70
2018-11-28T03:47:17.356Z,-0.70
2018-11-28T03:48:23.374Z,-0.60
2018-11-28T03:49:28.784Z,-0.70
2018-11-28T03:50:34.340Z,-0.70
2018-11-28T03:51:39.764Z,-0.70
2018-11-28T03:52:45.368Z,-0.70
2018-11-28T03:53:50.812Z,-0.60
2018-11-28T03:54:56.290Z,-0.60
2018-11-28T03:56:01.993Z,-0.60
2018-11-28T03:57:07.496Z,-0.70
2018-11-28T03:58:13.001Z,-0.60
2018-11-28T03:59:18.463Z,-0.70
2018-11-28T04:00:23.990Z,-0.60
2018-11-28T04:01:29.619Z,-0.60
2018-11-28T04:02:35.078Z,-0.60
2018-11-28T04:03:40.537Z,-0.70
2018-11-28T04:04:45.964Z,-0.70
2018-11-28T04:05:51.460Z,-0.60
2018-11-28T04:06:57.032Z,-0.70
2018-11-28T04:08:02.487Z,-0.70
2018-11-28T04:09:09.877Z,-0.70
2018-11-28T04:10:16.444Z,-0.70
2018-11-28T04:11:21.906Z,-0.70
2018-11-28T04:12:27.530Z,-0.70
2018-11-28T04:13:33.015Z,-0.60
2018-11-28T04:14:38.491Z,-0.60
2018-11-28T04:15:43.916Z,-0.60
2018-11-28T04:16:49.376Z,-0.60
2018-11-28T04:17:54.930Z,-0.70
2018-11-28T04:19:00.389Z,-0.60
2018-11-28T04:20:07.376Z,-0.60
2018-11-28T04:21:12.883Z,-0.60
2018-11-28T04:22:18.399Z,-0.60
2018-11-28T04:23:23.959Z,-0.60
2018-11-28T04:24:29.482Z,-0.60
2018-11-28T04:25:35.607Z,-0.60
2018-11-28T04:26:41.068Z,-0.70
2018-11-28T04:27:46.595Z,-0.70
2018-11-28T04:28:52.409Z,-0.70
2018-11-28T04:29:57.855Z,-0.70
2018-11-28T04:31:03.316Z,-0.70
2018-11-28T04:32:08.745Z,-0.70
2018-11-28T04:33:14.287Z,-0.70
2018-11-28T04:34:19.770Z,-0.70
2018-11-28T04:35:25.523Z,-0.70
2018-11-28T04:36:30.957Z,-0.70
2018-11-28T04:37:37.173Z,-0.70
2018-11-28T04:38:42.673Z,-0.70
2018-11-28T04:39:48.082Z,-0.70
2018-11-28T04:40:53.836Z,-0.70
2018-11-28T04:41:59.299Z,-0.70
2018-11-28T04:43:04.774Z,-0.70
2018-11-28T04:44:10.203Z,-0.70
2018-11-28T04:45:18.397Z,-0.70
2018-11-28T04:46:23.883Z,-0.70
2018-11-28T04:47:29.354Z,-0.70
2018-11-28T04:48:34.805Z,-0.70
2018-11-28T04:49:40.264Z,-0.70
2018-11-28T04:50:45.779Z,-0.70
2018-11-28T04:51:51.270Z,-0.70
2018-11-28T04:52:56.776Z,-0.70
2018-11-28T04:54:02.220Z,-0.70
2018-11-28T04:55:13.080Z,-0.70
2018-11-28T04:56:18.673Z,-0.70
2018-11-28T04:57:24.185Z,-0.70
2018-11-28T04:58:29.618Z,-0.70
2018-11-28T04:59:35.039Z,-0.70
2018-11-28T05:00:40.730Z,-0.70
2018-11-28T05:01:46.232Z,-0.70
2018-11-28T05:02:52.272Z,-0.70
2018-11-28T05:03:57.807Z,-0.70
2018-11-28T05:05:03.349Z,-0.70
2018-11-28T05:06:08.883Z,-0.70
2018-11-28T05:07:30.190Z,-0.70
2018-11-28T05:08:35.756Z,-0.70
2018-11-28T05:09:41.288Z,-0.60
2018-11-28T05:10:46.747Z,-0.60
2018-11-28T05:11:52.216Z,-0.60
2018-11-28T05:12:59.066Z,-0.50
2018-11-28T05:14:04.686Z,-0.50
2018-11-28T05:15:17.809Z,-0.50
2018-11-28T05:16:23.332Z,-0.50
2018-11-28T05:17:28.900Z,-0.50
2018-11-28T05:18:34.383Z,-0.50
2018-11-28T05:19:39.801Z,-0.50
2018-11-28T05:20:45.392Z,-0.50
2018-11-28T05:21:50.849Z,-0.50
2018-11-28T05:22:56.442Z,-0.50
2018-11-28T05:24:01.935Z,-0.50
2018-11-28T05:25:15.329Z,-0.50
2018-11-28T05:26:21.116Z,-0.40
2018-11-28T05:27:26.688Z,-0.40
2018-11-28T05:28:32.221Z,-0.50
2018-11-28T05:29:37.723Z,-0.50
2018-11-28T05:30:43.208Z,-0.40
2018-11-28T05:31:48.659Z,-0.50
2018-11-28T05:32:54.212Z,-0.40
2018-11-28T05:33:59.742Z,-0.40
2018-11-28T05:35:05.876Z,-0.40
2018-11-28T05:36:11.357Z,-0.40
2018-11-28T05:37:16.851Z,-0.40
2018-11-28T05:38:22.460Z,-0.40
2018-11-28T05:39:27.996Z,-0.40
2018-11-28T05:40:33.560Z,-0.40
2018-11-28T05:41:39.092Z,-0.30
2018-11-28T05:42:44.705Z,-0.40
2018-11-28T05:43:50.127Z,-0.40
2018-11-28T05:44:55.829Z,-0.40
2018-11-28T05:46:01.612Z,-0.30
2018-11-28T05:47:07.535Z,-0.30
2018-11-28T05:48:13.029Z,-0.30
2018-11-28T05:49:18.533Z,-0.30
2018-11-28T05:50:24.435Z,-0.30
2018-11-28T05:51:29.947Z,-0.20
2018-11-28T05:52:35.635Z,-0.30
2018-11-28T05:53:41.160Z,-0.30
2018-11-28T05:54:46.692Z,-0.30
2018-11-28T05:55:52.164Z,-0.30
2018-11-28T05:56:57.864Z,-0.30
2018-11-28T05:58:04.101Z,-0.20
2018-11-28T05:59:09.640Z,-0.20
2018-11-28T06:00:28.696Z,-0.20
2018-11-28T06:01:34.291Z,-0.10
2018-11-28T06:02:39.960Z,-0.20
2018-11-28T06:03:45.475Z,-0.30
2018-11-28T06:04:51.123Z,-0.20
2018-11-28T06:05:56.647Z,-0.20
2018-11-28T06:07:02.167Z,-0.20
2018-11-28T06:08:08.642Z,-0.20
2018-11-28T06:09:14.480Z,-0.10
2018-11-28T06:10:19.979Z,-0.10
2018-11-28T06:11:25.597Z,-0.10
2018-11-28T06:12:31.082Z,-0.20
2018-11-28T06:13:36.726Z,-0.10
2018-11-28T06:14:42.275Z,-0.10
2018-11-28T06:15:47.817Z,-0.10
2018-11-28T06:16:53.656Z,-0.10
2018-11-28T06:17:59.195Z,-0.10
2018-11-28T06:19:04.800Z,-0.10
2018-11-28T06:20:12.843Z,-0.10
2018-11-28T06:21:18.316Z,-0.10
2018-11-28T06:22:23.808Z,-0.10
2018-11-28T06:23:29.393Z,-0.10
2018-11-28T06:24:35.115Z,-0.10
2018-11-28T06:25:40.780Z,-0.10
2018-11-28T06:26:46.282Z,-0.10
2018-11-28T06:27:51.787Z,-0.10
2018-11-28T06:28:57.280Z,-0.10
2018-11-28T06:30:02.932Z,-0.10
2018-11-28T06:31:08.548Z,-0.10
2018-11-28T06:32:14.139Z,0.00
2018-11-28T06:33:19.815Z,0.00
2018-11-28T06:34:25.437Z,0.00
2018-11-28T06:35:30.920Z,0.00
2018-11-28T06:36:36.516Z,-0.10
2018-11-28T06:37:42.456Z,0.00
2018-11-28T06:38:47.973Z,0.00
2018-11-28T06:39:53.475Z,0.00
2018-11-28T06:40:58.927Z,0.00
2018-11-28T06:42:04.417Z,0.10
2018-11-28T06:43:09.982Z,0.00
2018-11-28T06:44:15.709Z,0.10
2018-11-28T06:45:23.072Z,0.10
2018-11-28T06:46:28.603Z,0.10
2018-11-28T06:47:34.215Z,0.10
2018-11-28T06:48:39.797Z,0.10
2018-11-28T06:49:45.360Z,0.10
2018-11-28T06:50:50.920Z,0.10
2018-11-28T06:51:56.438Z,0.10
2018-11-28T06:53:01.957Z,0.10
2018-11-28T06:54:07.573Z,0.10
2018-11-28T06:55:15.947Z,0.10
2018-11-28T06:56:21.481Z,0.20
2018-11-28T06:57:26.947Z,0.10
2018-11-28T06:58:32.449Z,0.10
2018-11-28T06:59:38.471Z,0.20
2018-11-28T07:00:43.723Z,0.20
2018-11-28T07:01:49.331Z,0.20
2018-11-28T07:02:55.448Z,0.20
2018-11-28T07:04:01.015Z,0.20
2018-11-28T07:05:07.770Z,0.20
2018-11-28T07:06:13.291Z,0.30
2018-11-28T07:07:18.809Z,0.30
2018-11-28T07:08:24.461Z,0.30
2018-11-28T07:09:30.037Z,0.30
2018-11-28T07:10:35.588Z,0.30
2018-11-28T07:11:41.072Z,0.40
2018-11-28T07:12:46.642Z,0.40
2018-11-28T07:13:52.128Z,0.40
2018-11-28T07:14:57.618Z,0.50
2018-11-28T07:16:03.120Z,0.50
2018-11-28T07:17:08.687Z,0.50
2018-11-28T07:18:31.040Z,0.50
2018-11-28T07:19:36.616Z,0.50
2018-11-28T07:20:42.211Z,0.50
2018-11-28T07:21:47.903Z,0.50
2018-11-28T07:22:53.496Z,0.50
2018-11-28T07:23:58.963Z,0.50
2018-11-28T07:25:05.067Z,0.50
2018-11-28T07:26:10.572Z,0.50
2018-11-28T07:27:16.164Z,0.50
2018-11-28T07:28:21.643Z,0.50
2018-11-28T07:29:27.206Z,0.50
2018-11-28T07:30:37.694Z,0.50
2018-11-28T07:31:38.573Z,0.60
2018-11-28T07:32:44.387Z,0.60
2018-11-28T07:33:49.854Z,0.60
2018-11-28T07:34:55.333Z,0.60
2018-11-28T07:36:00.797Z,0.60
2018-11-28T07:37:06.753Z,0.60
2018-11-28T07:38:12.248Z,0.60
2018-11-28T07:39:17.807Z,0.70
2018-11-28T07:40:25.195Z,0.70
2018-11-28T07:41:30.678Z,0.70
2018-11-28T07:42:36.132Z,0.70
2018-11-28T07:43:41.784Z,0.70
2018-11-28T07:44:47.318Z,0.70
2018-11-28T07:45:53.672Z,0.70
2018-11-28T07:46:59.124Z,0.80
2018-11-28T07:48:04.845Z,0.80
2018-11-28T07:49:10.407Z,0.80
2018-11-28T07:50:16.277Z,0.90
2018-11-28T07:51:21.811Z,0.80
2018-11-28T07:52:27.346Z,0.80
2018-11-28T07:53:32.911Z,0.80
2018-11-28T07:54:38.389Z,0.80
2018-11-28T07:55:43.927Z,0.80
2018-11-28T07:56:49.402Z,0.80
2018-11-28T07:57:54.960Z,0.90
2018-11-28T07:59:00.529Z,0.90
2018-11-28T08:00:12.862Z,0.90
2018-11-28T08:01:18.332Z,0.90
2018-11-28T08:02:23.885Z,1.00
2018-11-28T08:03:29.517Z,0.90
2018-11-28T08:04:34.955Z,1.00
2018-11-28T08:05:41.059Z,1.00
2018-11-28T08:06:46.577Z,1.00
2018-11-28T08:07:52.037Z,1.00
2018-11-28T08:08:58.480Z,1.10
2018-11-28T08:10:04.100Z,1.10
2018-11-28T08:11:10.009Z,1.10
2018-11-28T08:12:15.501Z,1.10
2018-11-28T08:13:21.028Z,1.10
2018-11-28T08:14:26.545Z,1.10
2018-11-28T08:15:32.125Z,1.10
2018-11-28T08:16:37.675Z,1.10
2018-11-28T08:17:43.892Z,1.20
2018-11-28T08:18:49.424Z,1.30
2018-11-28T08:19:55.040Z,1.30
2018-11-28T08:21:00.656Z,1.30
2018-11-28T08:22:06.292Z,1.40
2018-11-28T08:23:11.856Z,1.40
2018-11-28T08:24:17.400Z,1.40
2018-11-28T08:25:27.801Z,1.50
2018-11-28T08:26:29.047Z,1.50
2018-11-28T08:27:34.872Z,1.50
2018-11-28T08:28:40.079Z,1.50
2018-11-28T08:29:45.668Z,1.60
2018-11-28T08:30:51.174Z,1.60
2018-11-28T08:31:56.734Z,1.70
2018-11-28T08:33:02.275Z,1.70
2018-11-28T08:34:07.772Z,1.70
2018-11-28T08:35:13.988Z,1.70
2018-11-28T08:36:19.494Z,1.70
2018-11-28T08:37:25.032Z,1.70
2018-11-28T08:38:30.645Z,1.70
2018-11-28T08:39:36.227Z,1.80
2018-11-28T08:40:41.832Z,1.80
2018-11-28T08:41:47.266Z,1.90
2018-11-28T08:42:53.261Z,1.80
2018-11-28T08:43:58.763Z,1.80
2018-11-28T08:45:04.323Z,1.80
2018-11-28T08:46:09.891Z,1.90
2018-11-28T08:47:15.448Z,1.90
2018-11-28T08:48:20.939Z,1.90
2018-11-28T08:49:26.485Z,1.90
2018-11-28T08:50:36.087Z,1.80
2018-11-28T08:51:41.568Z,1.80
2018-11-28T08:52:47.201Z,1.90
2018-11-28T08:53:52.770Z,1.90
2018-11-28T08:54:58.355Z,1.90
2018-11-28T08:56:03.842Z,1.90
2018-11-28T08:57:09.475Z,1.90
2018-11-28T08:58:15.205Z,1.90
2018-11-28T08:59:20.797Z,2.00
2018-11-28T09:00:27.738Z,2.00
2018-11-28T09:01:33.199Z,2.00
2018-11-28T09:02:38.779Z,2.00
2018-11-28T09:03:44.331Z,2.00
2018-11-28T09:04:49.791Z,2.00
2018-11-28T09:05:55.316Z,2.00
2018-11-28T09:07:00.789Z,2.00
2018-11-28T09:08:06.324Z,2.10
2018-11-28T09:09:11.862Z,2.10
2018-11-28T09:10:19.748Z,2.10
2018-11-28T09:11:25.309Z,2.10
2018-11-28T09:12:30.997Z,2.10
2018-11-28T09:13:36.701Z,2.10
2018-11-28T09:14:42.194Z,2.20
2018-11-28T09:15:47.791Z,2.20
2018-11-28T09:16:53.492Z,2.20
2018-11-28T09:17:59.281Z,2.20
2018-11-28T09:19:04.825Z,2.30
2018-11-28T09:20:13.254Z,2.30
2018-11-28T09:21:18.876Z,2.40
2018-11-28T09:22:24.414Z,2.40
2018-11-28T09:23:29.953Z,2.40
2018-11-28T09:24:35.462Z,2.40
2018-11-28T09:25:41.066Z,2.40
2018-11-28T09:26:46.568Z,2.50
2018-11-28T09:27:54.863Z,2.40
2018-11-28T09:29:00.380Z,2.50
2018-11-28T09:30:10.723Z,2.50
2018-11-28T09:31:16.972Z,2.50
2018-11-28T09:32:22.567Z,2.50
2018-11-28T09:33:28.292Z,2.50
2018-11-28T09:34:33.836Z,2.60
2018-11-28T09:35:39.388Z,2.60
2018-11-28T09:36:44.913Z,2.60
2018-11-28T09:37:50.586Z,2.60
2018-11-28T09:38:56.059Z,2.70
2018-11-28T09:40:01.657Z,2.70
2018-11-28T09:41:07.507Z,2.70
2018-11-28T09:42:13.041Z,2.80
2018-11-28T09:43:18.527Z,2.80
2018-11-28T09:44:24.070Z,2.80
2018-11-28T09:45:29.827Z,2.90
2018-11-28T09:46:35.357Z,2.80
2018-11-28T09:47:40.939Z,2.90
2018-11-28T09:48:46.453Z,2.90
2018-11-28T09:49:52.001Z,2.90
2018-11-28T09:50:57.640Z,3.00
2018-11-28T09:52:03.193Z,3.00
2018-11-28T09:53:08.827Z,3.00
2018-11-28T09:54:14.472Z,3.10
2018-11-28T09:55:29.482Z,3.10
2018-11-28T09:56:34.952Z,3.20
2018-11-28T09:57:40.515Z,3.10
2018-11-28T09:58:46.224Z,3.10
2018-11-28T09:59:51.690Z,3.10
2018-11-28T10:00:57.248Z,3.20
2018-11-28T10:02:02.884Z,3.20
2018-11-28T10:03:08.441Z,3.20
2018-11-28T10:04:14.386Z,3.30
2018-11-28T10:05:35.474Z,3.20
2018-11-28T10:06:41.141Z,3.30
2018-11-28T10:07:46.675Z,3.30
2018-11-28T10:08:52.243Z,3.30
2018-11-28T10:09:57.791Z,3.30
2018-11-28T10:11:03.379Z,3.30
2018-11-28T10:12:08.976Z,3.40
2018-11-28T10:13:14.651Z,3.50
2018-11-28T10:14:20.365Z,3.40
2018-11-28T10:15:27.576Z,3.40
2018-11-28T10:16:33.195Z,3.40
2018-11-28T10:17:38.704Z,3.40
2018-11-28T10:18:44.135Z,3.40
2018-11-28T10:19:49.573Z,3.50
2018-11-28T10:20:55.222Z,3.40
2018-11-28T10:22:00.796Z,3.50
2018-11-28T10:23:06.818Z,3.50
2018-11-28T10:24:12.247Z,3.60
2018-11-28T10:25:26.304Z,3.60
2018-11-28T10:26:31.719Z,3.60
2018-11-28T10:27:37.179Z,3.60
2018-11-28T10:28:42.727Z,3.70
2018-11-28T10:29:48.175Z,3.60
2018-11-28T10:30:53.802Z,3.70
2018-11-28T10:31:59.372Z,3.70
2018-11-28T10:33:09.854Z,3.70
2018-11-28T10:34:15.332Z,3.70
2018-11-28T10:35:20.982Z,3.70
2018-11-28T10:36:26.551Z,3.70
2018-11-28T10:37:32.055Z,3.80
2018-11-28T10:38:37.610Z,3.80
2018-11-28T10:39:43.108Z,3.90
2018-11-28T10:40:48.540Z,3.90
2018-11-28T10:41:53.990Z,4.00
2018-11-28T10:43:00.746Z,3.90
2018-11-28T10:44:06.301Z,3.90
2018-11-28T10:45:14.147Z,3.90
2018-11-28T10:46:19.627Z,3.90
2018-11-28T10:47:25.087Z,3.90
2018-11-28T10:48:30.592Z,3.80
2018-11-28T10:49:36.003Z,3.90
2018-11-28T10:50:41.549Z,4.00
2018-11-28T10:51:50.316Z,4.00
2018-11-28T10:52:52.694Z,4.00
2018-11-28T10:53:59.744Z,4.10
2018-11-28T10:55:06.609Z,4.20
2018-11-28T10:56:12.112Z,4.20
2018-11-28T10:57:17.536Z,4.30
2018-11-28T10:58:23.036Z,4.30
2018-11-28T10:59:28.579Z,4.30
2018-11-28T11:00:39.301Z,4.30
2018-11-28T11:01:50.044Z,4.30
2018-11-28T11:03:00.636Z,4.30
2018-11-28T11:04:11.424Z,4.40
2018-11-28T11:05:22.040Z,4.50
2018-11-28T11:07:30.463Z,4.60
2018-11-28T11:08:41.247Z,4.50
2018-11-28T11:09:51.947Z,4.60
2018-11-28T11:11:02.473Z,4.60
2018-11-28T11:12:12.092Z,4.50
2018-11-28T11:13:22.627Z,4.60
2018-11-28T11:14:33.328Z,4.60
2018-11-28T11:15:38.926Z,4.50
2018-11-28T11:16:44.481Z,4.50
2018-11-28T11:17:50.051Z,4.50
2018-11-28T11:18:55.616Z,4.50
2018-11-28T11:20:01.188Z,4.50
2018-11-28T11:21:07.067Z,4.50
2018-11-28T11:22:12.634Z,4.60
2018-11-28T11:23:18.358Z,4.60
2018-11-28T11:24:23.989Z,4.60
2018-11-28T11:25:29.460Z,4.60
2018-11-28T11:26:35.140Z,4.60
2018-11-28T11:27:40.750Z,4.60
2018-11-28T11:28:46.276Z,4.60
2018-11-28T11:29:51.758Z,4.60
2018-11-28T11:30:57.269Z,4.60
2018-11-28T11:32:02.820Z,4.70
2018-11-28T11:33:08.440Z,4.70
2018-11-28T11:34:14.718Z,4.70
2018-11-28T11:35:19.783Z,4.70
2018-11-28T11:36:25.191Z,4.60
2018-11-28T11:37:30.696Z,4.60
2018-11-28T11:38:36.140Z,4.60
2018-11-28T11:39:41.664Z,4.70
2018-11-28T11:40:47.240Z,4.70
2018-11-28T11:41:52.828Z,4.80
2018-11-28T11:42:58.345Z,4.80
2018-11-28T11:44:03.948Z,4.80
2018-11-28T11:45:12.885Z,4.80
2018-11-28T11:46:18.496Z,4.90
2018-11-28T11:47:23.964Z,4.90
2018-11-28T11:48:29.439Z,4.90
2018-11-28T11:49:34.963Z,4.90
2018-11-28T11:50:40.496Z,4.90
2018-11-28T11:51:46.223Z,4.90
2018-11-28T11:52:51.695Z,4.90
2018-11-28T11:53:57.377Z,5.00
2018-11-28T11:55:02.896Z,5.00
2018-11-28T11:56:08.496Z,5.00
2018-11-28T11:57:14.158Z,5.00
2018-11-28T11:58:19.760Z,5.00
2018-11-28T11:59:25.315Z,5.00
2018-11-28T12:00:30.965Z,4.90
2018-11-28T12:01:36.408Z,4.90
2018-11-28T12:02:41.984Z,4.90
2018-11-28T12:03:47.532Z,5.00
2018-11-28T12:04:53.156Z,5.10
2018-11-28T12:06:00.125Z,5.00
2018-11-28T12:07:05.687Z,5.00
2018-11-28T12:08:11.142Z,5.00
2018-11-28T12:09:16.678Z,5.00
2018-11-28T12:10:22.214Z,5.00
2018-11-28T12:11:27.746Z,5.00
2018-11-28T12:12:33.217Z,5.10
2018-11-28T12:13:38.795Z,5.00
2018-11-28T12:14:44.488Z,5.10
2018-11-28T12:15:50.117Z,5.10
2018-11-28T12:16:58.102Z,5.20
2018-11-28T12:18:03.716Z,5.20
2018-11-28T12:19:09.299Z,5.10
2018-11-28T12:20:34.971Z,5.10
2018-11-28T12:21:40.493Z,5.10
2018-11-28T12:22:46.807Z,5.00
2018-11-28T12:23:52.267Z,5.10
2018-11-28T12:24:58.084Z,5.10
2018-11-28T12:26:03.885Z,5.00
2018-11-28T12:27:09.396Z,5.10
2018-11-28T12:28:14.944Z,5.00
2018-11-28T12:29:20.484Z,5.00
2018-11-28T12:30:26.156Z,5.00
2018-11-28T12:31:31.695Z,5.10
2018-11-28T12:32:37.201Z,5.10
2018-11-28T12:33:42.653Z,5.00
2018-11-28T12:34:50.482Z,5.00
2018-11-28T12:35:53.901Z,5.00
2018-11-28T12:36:59.381Z,5.10
2018-11-28T12:38:05.175Z,5.10
2018-11-28T12:39:11.803Z,5.10
2018-11-28T12:40:18.085Z,5.10
2018-11-28T12:41:23.674Z,5.10
2018-11-28T12:42:29.283Z,5.20
2018-11-28T12:43:34.805Z,5.10
2018-11-28T12:44:40.411Z,5.20
2018-11-28T12:45:47.967Z,5.20
2018-11-28T12:46:53.597Z,5.20
2018-11-28T12:47:59.221Z,5.20
2018-11-28T12:49:04.735Z,5.20
2018-11-28T12:50:22.231Z,5.20
2018-11-28T12:51:27.703Z,5.20
2018-11-28T12:52:33.249Z,5.20
2018-11-28T12:53:38.846Z,5.20
2018-11-28T12:54:44.336Z,5.20
2018-11-28T12:55:49.806Z,5.20
2018-11-28T12:56:55.495Z,5.20
2018-11-28T12:58:01.037Z,5.20
2018-11-28T12:59:06.803Z,5.20
2018-11-28T13:00:16.980Z,5.30
2018-11-28T13:01:22.511Z,5.40
2018-11-28T13:02:28.063Z,5.40
2018-11-28T13:03:33.773Z,5.30
2018-11-28T13:04:39.222Z,5.40
2018-11-28T13:05:44.664Z,5.40
2018-11-28T13:06:50.099Z,5.40
2018-11-28T13:07:55.693Z,5.40
2018-11-28T13:09:01.268Z,5.50
2018-11-28T13:10:19.064Z,5.50
2018-11-28T13:11:24.531Z,5.40
2018-11-28T13:12:30.014Z,5.50
2018-11-28T13:13:35.617Z,5.50
2018-11-28T13:14:41.276Z,5.50
2018-11-28T13:15:46.734Z,5.60
2018-11-28T13:16:52.243Z,5.60
2018-11-28T13:17:57.825Z,5.60
2018-11-28T13:19:03.360Z,5.60
2018-11-28T13:20:11.367Z,5.60
2018-11-28T13:21:16.909Z,5.70
2018-11-28T13:22:22.658Z,5.60
2018-11-28T13:23:28.206Z,5.60
2018-11-28T13:24:33.700Z,5.60
2018-11-28T13:25:39.301Z,5.70
2018-11-28T13:26:44.818Z,5.70
2018-11-28T13:27:50.466Z,5.70
2018-11-28T13:28:56.012Z,5.70
2018-11-28T13:30:01.546Z,5.70
2018-11-28T13:31:07.164Z,5.80
2018-11-28T13:32:12.747Z,5.70
2018-11-28T13:33:18.340Z,5.70
2018-11-28T13:34:23.904Z,5.80
2018-11-28T13:35:29.832Z,5.80
2018-11-28T13:36:35.358Z,5.80
2018-11-28T13:37:40.967Z,5.80
2018-11-28T13:38:46.493Z,5.90
2018-11-28T13:39:52.037Z,5.80
2018-11-28T13:40:57.667Z,5.80
2018-11-28T13:42:03.259Z,5.80
2018-11-28T13:43:09.005Z,5.90
2018-11-28T13:44:14.551Z,5.90
2018-11-28T13:45:23.772Z,5.90
2018-11-28T13:46:29.317Z,5.90
2018-11-28T13:47:34.739Z,5.90
2018-11-28T13:48:40.162Z,5.90
2018-11-28T13:49:45.728Z,5.90
2018-11-28T13:50:51.252Z,5.90
2018-11-28T13:51:56.935Z,5.90
2018-11-28T13:53:06.073Z,5.90
2018-11-28T13:54:21.136Z,5.90
2018-11-28T13:55:41.941Z,5.90
2018-11-28T13:56:58.339Z,5.90
2018-11-28T13:57:36.695Z,5.90
2018-11-28T13:58:42.132Z,5.90
2018-11-28T13:59:47.689Z,6.00
2018-11-28T14:00:53.289Z,6.00
2018-11-28T14:01:58.779Z,6.00
2018-11-28T14:03:04.412Z,6.00
2018-11-28T14:04:09.956Z,6.10
2018-11-28T14:05:15.708Z,6.00
2018-11-28T14:06:21.271Z,6.00
2018-11-28T14:07:26.948Z,6.00
2018-11-28T14:08:32.459Z,6.00
2018-11-28T14:09:38.018Z,6.00
2018-11-28T14:10:43.636Z,6.00
2018-11-28T14:11:49.137Z,5.90
2018-11-28T14:12:54.567Z,5.90
2018-11-28T14:14:00.244Z,5.90
2018-11-28T14:15:10.149Z,5.90
2018-11-28T14:16:15.614Z,6.00
2018-11-28T14:17:21.233Z,5.90
2018-11-28T14:18:26.787Z,5.90
2018-11-28T14:19:32.232Z,5.90
2018-11-28T14:20:37.764Z,5.90
2018-11-28T14:21:43.224Z,5.90
2018-11-28T14:22:48.808Z,5.90
2018-11-28T14:23:54.307Z,6.00
2018-11-28T14:24:59.840Z,5.90
2018-11-28T14:26:05.834Z,6.00